Time;durP1;ratioP1;P1;durP2;ratioP2;P2;SDS_P1;SDS_P2;PMS_P1;PMS_P2;Temp;Humidity;BMP_temperature;BMP_pressure;BME280_temperature;BME280_humidity;BME280_pressure;Samples;Min_cycle;Max_cycle;Signal;HPM_P1;HPM_P2
2023/08/05 00:01:24;;;;;;;5.78;4.55;;;;;;;;;;5071610;28;20048;-76
2023/08/05 00:03:50;;;;;;;7.82;4.55;;;;;;;;;;5073716;28;20051;-76
2023/08/05 00:06:16;;;;;;;8.18;4.20;;;;;;;;;;5060216;28;20045;-76
2023/08/05 00:08:42;;;;;;;10.38;4.80;;;;;;;;;;5056616;28;20041;-76
2023/08/05 00:11:08;;;;;;;9.57;4.60;;;;;;;;;;5073927;28;20086;-76
2023/08/05 00:13:34;;;;;;;7.00;4.47;;;;;;;;;;5062886;28;20128;-76
2023/08/05 00:16:05;;;;;;;7.45;4.50;;;;;;;;;;5075704;28;20051;-76
2023/08/05 00:18:31;;;;;;;6.68;4.30;;;;;;;;;;5075120;28;20041;-76
2023/08/05 00:20:57;;;;;;;6.22;4.43;;;;;;;;;;5061076;28;20407;-76
2023/08/05 00:23:23;;;;;;;8.45;4.65;;;;;;;;;;5064429;28;20115;-76
2023/08/05 00:25:49;;;;;;;6.88;4.32;;;;;;;;;;5067406;28;20056;-76
2023/08/05 00:28:15;;;;;;;7.18;4.60;;;;;;;;;;5059340;28;20043;-76
2023/08/05 00:30:41;;;;;;;5.22;4.30;;;;;;;;;;5075292;28;20083;-76
2023/08/05 00:33:07;;;;;;;6.43;4.40;;;;;;;;;;5074245;28;20047;-76
2023/08/05 00:35:33;;;;;;;6.70;4.65;;;;;;;;;;5076205;28;20044;-76
2023/08/05 00:37:59;;;;;;;7.28;4.80;;;;;;;;;;5066452;28;20459;-76
2023/08/05 00:40:25;;;;;;;8.18;4.65;;;;;;;;;;5068397;28;20052;-76
2023/08/05 00:42:52;;;;;;;6.63;4.55;;;;;;;;;;5059557;28;20043;-76
2023/08/05 00:45:18;;;;;;;6.95;4.47;;;;;;;;;;5074423;28;20079;-76
2023/08/05 00:47:44;;;;;;;7.10;4.45;;;;;;;;;;5066859;28;20040;-75
2023/08/05 00:50:11;;;;;;;5.80;4.35;;;;;;;;;;5063340;28;20040;-76
2023/08/05 00:52:37;;;;;;;7.07;4.60;;;;;;;;;;5056459;28;20041;-76
2023/08/05 00:55:04;;;;;;;8.38;5.00;;;;;;;;;;5055901;28;20052;-76
2023/08/05 00:57:30;;;;;;;6.68;4.63;;;;;;;;;;5058575;28;20546;-76
2023/08/05 00:59:56;;;;;;;7.70;4.53;;;;;;;;;;5075525;28;20041;-76
2023/08/05 01:02:22;;;;;;;5.40;4.28;;;;;;;;;;5067413;28;20037;-76
2023/08/05 01:04:48;;;;;;;5.70;4.43;;;;;;;;;;5054952;28;20063;-76
2023/08/05 01:07:14;;;;;;;8.73;4.88;;;;;;;;;;5055555;28;20048;-76
2023/08/05 01:09:40;;;;;;;6.68;4.60;;;;;;;;;;5069163;28;20163;-76
2023/08/05 01:12:07;;;;;;;7.38;4.30;;;;;;;;;;5068320;28;20499;-76
2023/08/05 01:14:33;;;;;;;8.55;4.72;;;;;;;;;;5054854;28;20041;-76
2023/08/05 01:16:59;;;;;;;8.27;5.10;;;;;;;;;;5073951;28;20473;-76
2023/08/05 01:19:27;;;;;;;7.40;4.45;;;;;;;;;;5075037;28;20049;-76
2023/08/05 01:22:16;;;;;;;8.40;4.90;;;;;;;;;;5074482;28;20051;-76
2023/08/05 01:25:04;;;;;;;6.97;4.38;;;;;;;;;;5074156;28;20076;-76
2023/08/05 01:27:31;;;;;;;6.43;3.92;;;;;;;;;;5070253;28;20091;-76
2023/08/05 01:29:57;;;;;;;8.27;4.75;;;;;;;;;;5074698;28;20041;-76
2023/08/05 01:32:24;;;;;;;8.82;4.55;;;;;;;;;;5072141;28;20043;-76
2023/08/05 01:34:51;;;;;;;6.32;4.70;;;;;;;;;;5074751;28;20479;-76
2023/08/05 01:37:17;;;;;;;5.97;4.60;;;;;;;;;;5074484;28;20048;-76
2023/08/05 01:39:43;;;;;;;12.63;5.35;;;;;;;;;;5062143;28;20530;-76
2023/08/05 01:42:09;;;;;;;10.98;5.55;;;;;;;;;;5069292;28;20079;-76
2023/08/05 01:44:35;;;;;;;10.55;5.10;;;;;;;;;;5054730;28;20116;-76
2023/08/05 01:47:01;;;;;;;9.60;5.20;;;;;;;;;;5054542;28;20049;-76
2023/08/05 01:49:27;;;;;;;12.65;5.85;;;;;;;;;;5054009;28;20098;-76
2023/08/05 01:51:53;;;;;;;9.95;5.43;;;;;;;;;;5056149;28;20511;-76
2023/08/05 01:54:19;;;;;;;6.80;4.93;;;;;;;;;;5062956;28;20128;-76
2023/08/05 01:56:45;;;;;;;11.15;5.75;;;;;;;;;;5054436;28;20124;-75
2023/08/05 01:59:11;;;;;;;10.10;5.30;;;;;;;;;;5056827;28;20459;-75
2023/08/05 02:01:44;;;;;;;8.10;5.25;;;;;;;;;;5070131;28;20054;-76
2023/08/05 02:04:11;;;;;;;7.78;5.40;;;;;;;;;;5056270;28;20084;-75
2023/08/05 02:06:37;;;;;;;7.22;5.53;;;;;;;;;;5054160;28;20099;-76
2023/08/05 02:09:04;;;;;;;7.97;5.72;;;;;;;;;;5057524;28;20097;-76
2023/08/05 02:11:30;;;;;;;7.55;5.45;;;;;;;;;;5053735;28;20116;-75
2023/08/05 02:13:56;;;;;;;7.43;5.28;;;;;;;;;;5059180;28;20081;-75
2023/08/05 02:16:23;;;;;;;8.82;5.53;;;;;;;;;;5065158;28;20049;-76
2023/08/05 02:18:52;;;;;;;9.38;5.60;;;;;;;;;;5059230;28;20072;-76
2023/08/05 02:21:18;;;;;;;8.35;5.72;;;;;;;;;;5056541;28;20391;-76
2023/08/05 02:23:44;;;;;;;8.43;5.70;;;;;;;;;;5072637;28;20130;-76
2023/08/05 02:26:10;;;;;;;8.00;5.20;;;;;;;;;;5057093;28;20057;-76
2023/08/05 02:28:37;;;;;;;12.98;5.45;;;;;;;;;;5052851;28;20115;-76
2023/08/05 02:31:03;;;;;;;7.22;5.68;;;;;;;;;;5056126;28;20526;-76
2023/08/05 02:33:29;;;;;;;8.13;5.50;;;;;;;;;;5068668;28;20136;-75
2023/08/05 02:35:58;;;;;;;11.70;5.68;;;;;;;;;;5053741;28;20525;-76
2023/08/05 02:38:24;;;;;;;11.73;6.00;;;;;;;;;;5062062;28;20056;-75
2023/08/05 02:40:50;;;;;;;9.35;5.30;;;;;;;;;;5073529;28;20119;-75
2023/08/05 02:43:17;;;;;;;10.77;5.70;;;;;;;;;;5072216;28;20051;-75
2023/08/05 02:45:43;;;;;;;8.93;5.47;;;;;;;;;;5073120;28;20059;-76
2023/08/05 02:48:09;;;;;;;9.45;5.80;;;;;;;;;;5073543;28;20044;-76
2023/08/05 02:50:35;;;;;;;9.82;5.57;;;;;;;;;;5072005;28;20044;-76
2023/08/05 02:53:01;;;;;;;8.93;5.95;;;;;;;;;;5072070;28;20041;-76
2023/08/05 02:55:30;;;;;;;10.93;6.10;;;;;;;;;;5062365;28;20120;-75
2023/08/05 02:57:56;;;;;;;8.15;6.18;;;;;;;;;;5053240;28;20045;-75
2023/08/05 03:00:22;;;;;;;10.23;6.32;;;;;;;;;;5053065;28;20047;-76
2023/08/05 03:02:48;;;;;;;7.47;5.43;;;;;;;;;;5053094;28;20056;-76
2023/08/05 03:05:14;;;;;;;9.68;5.22;;;;;;;;;;5067913;28;20048;-75
2023/08/05 03:07:40;;;;;;;7.32;5.00;;;;;;;;;;5071922;28;20459;-75
2023/08/05 03:10:06;;;;;;;8.10;5.40;;;;;;;;;;5072691;28;20499;-75
2023/08/05 03:12:32;;;;;;;8.40;4.88;;;;;;;;;;5072933;28;20051;-75
2023/08/05 03:14:58;;;;;;;8.55;5.40;;;;;;;;;;5057986;28;20071;-75
2023/08/05 03:17:24;;;;;;;8.70;5.60;;;;;;;;;;5052742;28;20083;-75
2023/08/05 03:19:54;;;;;;;9.60;5.60;;;;;;;;;;5056651;28;20055;-76
2023/08/05 03:22:20;;;;;;;11.00;6.07;;;;;;;;;;5063616;28;20522;-75
2023/08/05 03:24:46;;;;;;;8.52;5.65;;;;;;;;;;5067451;28;20479;-75
2023/08/05 03:27:12;;;;;;;8.80;5.75;;;;;;;;;;5071914;28;20352;-75
2023/08/05 03:29:38;;;;;;;9.15;5.85;;;;;;;;;;5067246;28;20475;-75
2023/08/05 03:32:04;;;;;;;8.40;5.03;;;;;;;;;;5052583;28;20487;-75
2023/08/05 03:34:30;;;;;;;9.05;5.88;;;;;;;;;;5059063;28;20037;-75
2023/08/05 03:36:56;;;;;;;9.02;5.95;;;;;;;;;;5060249;28;20317;-75
2023/08/05 03:39:22;;;;;;;8.48;5.40;;;;;;;;;;5074376;28;20056;-75
2023/08/05 03:41:48;;;;;;;9.32;5.95;;;;;;;;;;5076643;28;20164;-75
2023/08/05 03:44:14;;;;;;;8.70;5.35;;;;;;;;;;5068385;28;20033;-75
2023/08/05 03:46:40;;;;;;;9.02;5.07;;;;;;;;;;5069707;28;20568;-75
2023/08/05 03:49:06;;;;;;;8.00;5.28;;;;;;;;;;5059147;28;20052;-75
2023/08/05 03:51:33;;;;;;;7.80;5.10;;;;;;;;;;5056454;28;20480;-75
2023/08/05 03:53:59;;;;;;;8.32;5.30;;;;;;;;;;5059932;28;20071;-76
2023/08/05 03:56:27;;;;;;;7.82;6.13;;;;;;;;;;5060869;28;20103;-75
2023/08/05 03:58:56;;;;;;;10.38;5.93;;;;;;;;;;5074000;28;20075;-75
2023/08/05 04:01:23;;;;;;;10.90;6.20;;;;;;;;;;5076342;28;20087;-75
2023/08/05 04:03:51;;;;;;;11.30;5.93;;;;;;;;;;5073695;28;20386;-75
2023/08/05 04:06:20;;;;;;;10.80;6.03;;;;;;;;;;5056208;28;20041;-75
2023/08/05 04:08:48;;;;;;;9.05;6.32;;;;;;;;;;5056446;28;20067;-75
2023/08/05 04:11:14;;;;;;;10.40;5.78;;;;;;;;;;5056267;28;20099;-76
2023/08/05 04:13:42;;;;;;;9.95;5.55;;;;;;;;;;5056375;28;20121;-75
2023/08/05 04:16:09;;;;;;;9.15;5.43;;;;;;;;;;5057733;28;20049;-76
2023/08/05 04:18:36;;;;;;;8.88;5.47;;;;;;;;;;5056603;28;20053;-76
2023/08/05 04:21:08;;;;;;;7.90;5.80;;;;;;;;;;5056331;28;20041;-75
2023/08/05 04:23:34;;;;;;;9.63;5.53;;;;;;;;;;5074450;28;20048;-75
2023/08/05 04:26:02;;;;;;;9.85;5.70;;;;;;;;;;5072914;28;20560;-75
2023/08/05 04:28:28;;;;;;;10.52;5.65;;;;;;;;;;5076083;28;20391;-76
2023/08/05 04:30:57;;;;;;;9.48;5.45;;;;;;;;;;5075904;28;20091;-75
2023/08/05 04:33:25;;;;;;;11.35;5.97;;;;;;;;;;5058889;28;20049;-75
2023/08/05 04:35:51;;;;;;;8.35;5.95;;;;;;;;;;5055479;28;20491;-75
2023/08/05 04:38:18;;;;;;;8.93;6.40;;;;;;;;;;5055847;28;20049;-75
2023/08/05 04:40:44;;;;;;;11.15;6.82;;;;;;;;;;5055289;28;20488;-75
2023/08/05 04:43:11;;;;;;;10.75;6.53;;;;;;;;;;5067113;28;20438;-75
2023/08/05 04:45:38;;;;;;;11.75;6.80;;;;;;;;;;5074188;28;20040;-75
2023/08/05 04:48:05;;;;;;;9.88;6.25;;;;;;;;;;5059779;28;20080;-75
2023/08/05 04:50:31;;;;;;;12.73;6.90;;;;;;;;;;5068676;28;20044;-75
2023/08/05 04:52:57;;;;;;;9.60;6.50;;;;;;;;;;5075288;28;20375;-76
2023/08/05 04:55:23;;;;;;;9.00;6.15;;;;;;;;;;5073876;28;20052;-75
2023/08/05 04:57:53;;;;;;;12.52;6.40;;;;;;;;;;5064796;28;20521;-76
2023/08/05 05:00:19;;;;;;;11.07;6.68;;;;;;;;;;5059106;28;20459;-77
2023/08/05 05:02:45;;;;;;;9.55;5.72;;;;;;;;;;5060930;28;20048;-76
2023/08/05 05:05:11;;;;;;;9.75;5.85;;;;;;;;;;5065561;28;20079;-76
2023/08/05 05:07:37;;;;;;;10.48;5.80;;;;;;;;;;5061213;28;20072;-76
2023/08/05 05:10:04;;;;;;;9.07;5.40;;;;;;;;;;5058168;28;20037;-76
2023/08/05 05:12:30;;;;;;;10.30;5.70;;;;;;;;;;5054894;28;20452;-76
2023/08/05 05:14:56;;;;;;;10.07;5.97;;;;;;;;;;5063347;28;20049;-76
2023/08/05 05:17:22;;;;;;;7.00;5.50;;;;;;;;;;5060856;28;20045;-76
2023/08/05 05:19:49;;;;;;;10.13;5.57;;;;;;;;;;5060563;28;20053;-79
2023/08/05 05:22:18;;;;;;;11.38;5.05;;;;;;;;;;5063015;28;20036;-76
2023/08/05 05:24:45;;;;;;;7.63;4.63;;;;;;;;;;5070941;28;20040;-75
2023/08/05 05:27:13;;;;;;;9.05;4.55;;;;;;;;;;5060209;28;20056;-76
2023/08/05 05:29:40;;;;;;;8.73;4.90;;;;;;;;;;5054562;28;20064;-76
2023/08/05 05:32:07;;;;;;;9.05;4.78;;;;;;;;;;5057144;28;20411;-76
2023/08/05 05:34:33;;;;;;;8.40;4.30;;;;;;;;;;5056729;28;20375;-76
2023/08/05 05:36:59;;;;;;;14.38;5.28;;;;;;;;;;5058233;28;20475;-76
2023/08/05 05:39:25;;;;;;;8.50;4.55;;;;;;;;;;5062254;28;20495;-76
2023/08/05 05:41:51;;;;;;;5.97;3.80;;;;;;;;;;5071061;28;20509;-76
2023/08/05 05:44:17;;;;;;;6.38;4.07;;;;;;;;;;5074616;28;20110;-76
2023/08/05 05:46:43;;;;;;;7.15;4.10;;;;;;;;;;5069980;28;20052;-76
2023/08/05 05:49:14;;;;;;;7.57;4.40;;;;;;;;;;5070979;28;20075;-76
2023/08/05 05:51:42;;;;;;;5.32;3.85;;;;;;;;;;5077367;28;20105;-77
2023/08/05 05:54:08;;;;;;;11.15;4.22;;;;;;;;;;5058924;28;20049;-76
2023/08/05 05:56:34;;;;;;;5.95;3.92;;;;;;;;;;5056305;28;20062;-76
2023/08/05 05:59:00;;;;;;;5.97;3.60;;;;;;;;;;5056989;28;20455;-75
2023/08/05 06:01:26;;;;;;;4.45;3.10;;;;;;;;;;5062133;28;20363;-75
2023/08/05 06:03:52;;;;;;;7.40;3.90;;;;;;;;;;5072042;28;20055;-75
2023/08/05 06:06:18;;;;;;;4.32;3.03;;;;;;;;;;5054292;28;20049;-76
2023/08/05 06:08:44;;;;;;;5.95;3.72;;;;;;;;;;5054090;28;20040;-76
2023/08/05 06:11:10;;;;;;;5.35;3.47;;;;;;;;;;5054151;28;20048;-76
2023/08/05 06:13:37;;;;;;;6.25;3.38;;;;;;;;;;5054050;28;20091;-76
2023/08/05 06:16:03;;;;;;;4.50;3.05;;;;;;;;;;5062076;28;20060;-76
2023/08/05 06:18:29;;;;;;;5.28;3.22;;;;;;;;;;5064409;28;20051;-77
2023/08/05 06:20:55;;;;;;;4.82;3.30;;;;;;;;;;5058840;28;20049;-76
2023/08/05 06:23:21;;;;;;;5.60;3.35;;;;;;;;;;5064339;28;20040;-76
2023/08/05 06:25:48;;;;;;;5.03;3.10;;;;;;;;;;5061293;28;20045;-76
2023/08/05 06:28:14;;;;;;;6.07;3.15;;;;;;;;;;5073650;28;20040;-76
2023/08/05 06:30:44;;;;;;;5.10;3.00;;;;;;;;;;5073708;28;20040;-76
2023/08/05 06:33:10;;;;;;;5.25;3.10;;;;;;;;;;5073957;28;20056;-76
2023/08/05 06:35:36;;;;;;;6.40;3.10;;;;;;;;;;5066837;28;20871;-76
2023/08/05 06:38:02;;;;;;;5.13;3.35;;;;;;;;;;5066172;28;20136;-76
2023/08/05 06:40:29;;;;;;;6.78;3.63;;;;;;;;;;5070293;28;20041;-76
2023/08/05 06:42:56;;;;;;;5.25;3.63;;;;;;;;;;5062792;28;20123;-76
2023/08/05 06:45:22;;;;;;;6.25;3.17;;;;;;;;;;5073763;28;20115;-76
2023/08/05 06:47:49;;;;;;;6.72;3.78;;;;;;;;;;5073384;28;20060;-76
2023/08/05 06:50:15;;;;;;;4.88;3.20;;;;;;;;;;5052928;28;20424;-76
2023/08/05 06:52:41;;;;;;;5.82;3.22;;;;;;;;;;5070600;28;20052;-76
2023/08/05 06:55:08;;;;;;;5.18;3.45;;;;;;;;;;5073537;28;20044;-76
2023/08/05 06:57:34;;;;;;;13.98;3.58;;;;;;;;;;5073611;28;20119;-75
2023/08/05 07:00:01;;;;;;;4.43;3.17;;;;;;;;;;5073596;28;20498;-75
2023/08/05 07:02:27;;;;;;;4.85;3.00;;;;;;;;;;5072761;28;20044;-76
2023/08/05 07:04:53;;;;;;;5.05;3.13;;;;;;;;;;5073145;28;20040;-76
2023/08/05 07:07:20;;;;;;;5.80;3.15;;;;;;;;;;5060284;28;20067;-76
2023/08/05 07:09:46;;;;;;;4.93;2.95;;;;;;;;;;5053178;28;20055;-77
2023/08/05 07:12:12;;;;;;;4.05;3.05;;;;;;;;;;5053305;28;20088;-76
2023/08/05 07:14:39;;;;;;;5.60;3.17;;;;;;;;;;5053061;28;20091;-76
2023/08/05 07:17:05;;;;;;;3.97;2.92;;;;;;;;;;5059353;28;20077;-76
2023/08/05 07:19:32;;;;;;;3.85;2.78;;;;;;;;;;5058619;28;20044;-76
2023/08/05 07:21:58;;;;;;;3.83;2.85;;;;;;;;;;5060446;28;20049;-76
2023/08/05 07:24:24;;;;;;;4.50;2.88;;;;;;;;;;5072586;28;20052;-76
2023/08/05 07:26:50;;;;;;;7.93;3.50;;;;;;;;;;5054421;28;20122;-76
2023/08/05 07:29:16;;;;;;;6.38;3.38;;;;;;;;;;5065637;28;20068;-76
2023/08/05 07:31:42;;;;;;;5.07;3.08;;;;;;;;;;5053083;28;20045;-76
2023/08/05 07:34:09;;;;;;;4.80;3.05;;;;;;;;;;5055144;28;20479;-76
2023/08/05 07:36:36;;;;;;;3.97;3.25;;;;;;;;;;5063691;28;20049;-76
2023/08/05 07:39:06;;;;;;;7.70;3.20;;;;;;;;;;5053111;28;20057;-75
2023/08/05 07:41:32;;;;;;;5.28;3.13;;;;;;;;;;5065524;28;20033;-76
2023/08/05 07:44:00;;;;;;;3.58;3.10;;;;;;;;;;5064690;28;20076;-76
2023/08/05 07:46:27;;;;;;;5.30;3.40;;;;;;;;;;5052839;28;20072;-76
2023/08/05 07:48:55;;;;;;;3.30;2.97;;;;;;;;;;5059948;28;20047;-76
2023/08/05 07:51:23;;;;;;;5.03;3.25;;;;;;;;;;5072352;28;20052;-76
2023/08/05 07:53:50;;;;;;;4.50;3.15;;;;;;;;;;5052128;28;20052;-76
2023/08/05 07:56:16;;;;;;;4.68;3.05;;;;;;;;;;5058700;28;20104;-76
2023/08/05 07:58:46;;;;;;;6.22;3.40;;;;;;;;;;5064840;28;20078;-76
2023/08/05 08:01:22;;;;;;;3.80;3.13;;;;;;;;;;5069125;28;20082;-76
2023/08/05 08:03:53;;;;;;;3.85;2.92;;;;;;;;;;5052331;28;20045;-76
2023/08/05 08:06:20;;;;;;;5.28;3.00;;;;;;;;;;5058753;28;20348;-76
2023/08/05 08:08:46;;;;;;;5.10;3.40;;;;;;;;;;5056635;28;20190;-76
2023/08/05 08:11:13;;;;;;;5.25;3.08;;;;;;;;;;5052087;28;20041;-76
2023/08/05 08:13:39;;;;;;;4.63;2.80;;;;;;;;;;5058561;28;20051;-76
2023/08/05 08:16:05;;;;;;;4.40;3.30;;;;;;;;;;5075965;28;20112;-76
2023/08/05 08:18:31;;;;;;;6.93;3.22;;;;;;;;;;5071864;28;20436;-76
2023/08/05 08:20:57;;;;;;;5.03;2.92;;;;;;;;;;5072081;28;20040;-77
2023/08/05 08:23:24;;;;;;;4.78;3.03;;;;;;;;;;5071433;28;20130;-76
2023/08/05 08:25:50;;;;;;;4.95;3.00;;;;;;;;;;5073955;28;20071;-76
2023/08/05 08:28:16;;;;;;;4.18;2.92;;;;;;;;;;5066934;28;20040;-76
2023/08/05 08:30:55;;;;;;;4.38;2.85;;;;;;;;;;5069616;28;20124;-76
2023/08/05 08:33:22;;;;;;;5.32;3.13;;;;;;;;;;5067216;28;20564;-76
2023/08/05 08:35:49;;;;;;;4.65;2.90;;;;;;;;;;5059205;28;20045;-76
2023/08/05 08:38:15;;;;;;;4.10;2.80;;;;;;;;;;5061444;28;20048;-76
2023/08/05 08:40:51;;;;;;;10.63;3.22;;;;;;;;;;5056036;28;20150;-76
2023/08/05 08:43:18;;;;;;;3.85;2.50;;;;;;;;;;5070785;28;20046;-76
2023/08/05 08:45:51;;;;;;;5.40;3.58;;;;;;;;;;5064603;28;20055;-76
2023/08/05 08:48:18;;;;;;;4.65;2.85;;;;;;;;;;5068918;28;20052;-76
2023/08/05 08:50:45;;;;;;;3.97;2.75;;;;;;;;;;5075673;28;20049;-76
2023/08/05 08:53:13;;;;;;;4.50;2.90;;;;;;;;;;5077420;28;20128;-76
2023/08/05 08:55:41;;;;;;;4.13;3.05;;;;;;;;;;5074868;28;20041;-76
2023/08/05 08:58:07;;;;;;;5.35;2.88;;;;;;;;;;5074193;28;20374;-76
2023/08/05 09:00:33;;;;;;;5.47;3.10;;;;;;;;;;5074243;28;20040;-76
2023/08/05 09:03:00;;;;;;;5.25;3.00;;;;;;;;;;5074737;28;20097;-76
2023/08/05 09:05:31;;;;;;;5.13;2.75;;;;;;;;;;5062174;28;20052;-76
2023/08/05 09:07:58;;;;;;;4.30;3.05;;;;;;;;;;5055914;28;20045;-76
2023/08/05 09:10:24;;;;;;;5.78;3.50;;;;;;;;;;5036979;28;20045;-76
2023/08/05 09:12:50;;;;;;;4.05;2.83;;;;;;;;;;5055542;28;20080;-76
2023/08/05 09:15:17;;;;;;;3.40;2.75;;;;;;;;;;5060134;28;20040;-76
2023/08/05 09:17:44;;;;;;;4.82;2.85;;;;;;;;;;5061987;28;20049;-76
2023/08/05 09:20:11;;;;;;;5.07;2.85;;;;;;;;;;5075300;28;20186;-76
2023/08/05 09:22:37;;;;;;;6.28;3.10;;;;;;;;;;5072464;28;20052;-76
2023/08/05 09:25:03;;;;;;;4.65;3.15;;;;;;;;;;5075999;28;20067;-77
2023/08/05 09:27:45;;;;;;;4.57;2.90;;;;;;;;;;5069714;28;20052;-76
2023/08/05 09:30:16;;;;;;;4.45;2.78;;;;;;;;;;5077689;28;20380;-76
2023/08/05 09:32:44;;;;;;;4.28;3.10;;;;;;;;;;5075368;28;20052;-76
2023/08/05 09:35:10;;;;;;;4.53;3.13;;;;;;;;;;5075094;28;20087;-76
2023/08/05 09:37:55;;;;;;;5.45;3.30;;;;;;;;;;5073355;28;20060;-76
2023/08/05 09:40:26;;;;;;;7.72;3.70;;;;;;;;;;5055144;28;20060;-76
2023/08/05 09:42:54;;;;;;;4.15;2.95;;;;;;;;;;5058455;28;20049;-77
2023/08/05 09:45:21;;;;;;;4.90;2.90;;;;;;;;;;5062608;28;20086;-76
2023/08/05 09:47:50;;;;;;;4.20;3.00;;;;;;;;;;5068732;28;20049;-76
2023/08/05 09:50:17;;;;;;;4.80;2.85;;;;;;;;;;5074616;28;20090;-76
2023/08/05 09:52:43;;;;;;;5.28;3.60;;;;;;;;;;5074524;28;20124;-76
2023/08/05 09:55:14;;;;;;;5.60;3.30;;;;;;;;;;5073381;28;20335;-76
2023/08/05 09:57:41;;;;;;;5.05;3.00;;;;;;;;;;5058066;28;20049;-76
2023/08/05 10:00:10;;;;;;;4.55;3.22;;;;;;;;;;5063671;28;20048;-76
2023/08/05 10:02:37;;;;;;;4.70;2.95;;;;;;;;;;5059972;28;20072;-76
2023/08/05 10:05:03;;;;;;;5.97;3.50;;;;;;;;;;5060258;28;20045;-76
2023/08/05 10:07:29;;;;;;;6.00;3.20;;;;;;;;;;5059718;28;20037;-76
2023/08/05 10:09:57;;;;;;;4.85;3.30;;;;;;;;;;5054435;28;20063;-78
2023/08/05 10:12:27;;;;;;;5.60;2.97;;;;;;;;;;5060108;28;20041;-76
2023/08/05 10:14:59;;;;;;;3.88;2.90;;;;;;;;;;5070599;28;20043;-76
2023/08/05 10:17:25;;;;;;;10.25;4.93;;;;;;;;;;5072268;28;20125;-76
2023/08/05 10:19:52;;;;;;;36.33;11.68;;;;;;;;;;5074319;28;20041;-76
2023/08/05 10:22:25;;;;;;;14.57;6.45;;;;;;;;;;5068176;28;20048;-76
2023/08/05 10:24:54;;;;;;;7.88;4.32;;;;;;;;;;5074264;28;20048;-76
2023/08/05 10:27:34;;;;;;;21.08;7.97;;;;;;;;;;5072038;28;20070;-76
2023/08/05 10:30:06;;;;;;;4.68;3.30;;;;;;;;;;5072017;28;20127;-77
2023/08/05 10:32:33;;;;;;;4.05;2.83;;;;;;;;;;5071498;28;20072;-76
2023/08/05 10:35:18;;;;;;;9.45;4.25;;;;;;;;;;5073458;28;20434;-78
2023/08/05 10:37:50;;;;;;;5.43;3.20;;;;;;;;;;5071816;28;20072;-77
2023/08/05 10:40:49;;;;;;;6.22;3.33;;;;;;;;;;5073662;28;20049;-76
2023/08/05 10:43:30;;;;;;;5.30;2.80;;;;;;;;;;5028980;28;20052;-76
2023/08/05 10:46:00;;;;;;;11.98;5.60;;;;;;;;;;5069808;28;20099;-76
2023/08/05 10:48:30;;;;;;;9.43;4.40;;;;;;;;;;5073404;28;20072;-77
2023/08/05 10:50:56;;;;;;;7.78;3.75;;;;;;;;;;5073546;28;20080;-77
2023/08/05 10:53:22;;;;;;;5.93;3.22;;;;;;;;;;5073218;28;20040;-76
2023/08/05 10:55:50;;;;;;;4.18;2.90;;;;;;;;;;5071632;28;20049;-77
2023/08/05 10:58:21;;;;;;;5.60;3.25;;;;;;;;;;5059251;28;20036;-78
2023/08/05 11:00:55;;;;;;;13.77;5.50;;;;;;;;;;5073259;28;20432;-77
2023/08/05 11:03:23;;;;;;;4.70;2.97;;;;;;;;;;5070154;28;20045;-77
2023/08/05 11:05:49;;;;;;;4.43;2.95;;;;;;;;;;5085172;28;20540;-77
2023/08/05 11:08:22;;;;;;;10.00;3.85;;;;;;;;;;5058224;28;20036;-77
2023/08/05 11:10:51;;;;;;;9.38;4.45;;;;;;;;;;5069364;28;20040;-77
2023/08/05 11:13:18;;;;;;;3.42;2.63;;;;;;;;;;5072852;28;20066;-77
2023/08/05 11:16:03;;;;;;;3.25;2.80;;;;;;;;;;5072768;28;20052;-77
2023/08/05 11:18:30;;;;;;;7.37;3.40;;;;;;;;;;5056276;28;20045;-77
2023/08/05 11:20:57;;;;;;;3.65;3.08;;;;;;;;;;5062403;28;20049;-76
2023/08/05 11:23:24;;;;;;;3.20;2.90;;;;;;;;;;5062093;28;20123;-77
2023/08/05 11:25:50;;;;;;;5.85;3.20;;;;;;;;;;5072392;28;20379;-77
2023/08/05 11:28:17;;;;;;;3.55;3.10;;;;;;;;;;5071462;28;20340;-77
2023/08/05 11:30:43;;;;;;;3.85;2.90;;;;;;;;;;5072598;28;20036;-76
2023/08/05 11:33:09;;;;;;;3.92;3.05;;;;;;;;;;5065891;28;20070;-77
2023/08/05 11:35:42;;;;;;;4.70;3.03;;;;;;;;;;5072566;28;20052;-77
2023/08/05 11:38:09;;;;;;;4.22;2.80;;;;;;;;;;5053103;28;20061;-77
2023/08/05 11:40:40;;;;;;;3.30;2.95;;;;;;;;;;5052668;28;20057;-76
2023/08/05 11:43:06;;;;;;;2.97;2.70;;;;;;;;;;5053024;28;20104;-77
2023/08/05 11:45:32;;;;;;;3.20;2.90;;;;;;;;;;5070895;28;20043;-77
2023/08/05 11:47:58;;;;;;;5.78;3.30;;;;;;;;;;5072591;28;20348;-77
2023/08/05 11:50:34;;;;;;;7.35;3.05;;;;;;;;;;5072390;28;20135;-76
2023/08/05 11:53:04;;;;;;;4.05;2.88;;;;;;;;;;5072931;28;20491;-76
2023/08/05 11:55:34;;;;;;;3.80;3.00;;;;;;;;;;5059445;28;20614;-76
2023/08/05 11:58:04;;;;;;;5.57;3.15;;;;;;;;;;5052907;28;20045;-76
2023/08/05 12:00:30;;;;;;;5.78;4.00;;;;;;;;;;5073978;28;20040;-76
2023/08/05 12:02:56;;;;;;;4.00;3.20;;;;;;;;;;5076042;28;20125;-76
2023/08/05 12:05:23;;;;;;;4.53;3.47;;;;;;;;;;5075667;28;20044;-77
2023/08/05 12:07:49;;;;;;;3.85;3.38;;;;;;;;;;5075957;28;20436;-76
2023/08/05 12:10:19;;;;;;;5.65;3.15;;;;;;;;;;5076194;28;20044;-77
2023/08/05 12:12:48;;;;;;;6.47;3.75;;;;;;;;;;5072681;28;21041;-76
2023/08/05 12:15:18;;;;;;;5.80;3.17;;;;;;;;;;5056284;28;20048;-76
2023/08/05 12:17:46;;;;;;;4.47;3.13;;;;;;;;;;5056031;28;20049;-76
2023/08/05 12:20:15;;;;;;;4.78;3.30;;;;;;;;;;5063128;28;20379;-76
2023/08/05 12:22:41;;;;;;;4.68;3.22;;;;;;;;;;5056141;28;20563;-76
2023/08/05 12:25:07;;;;;;;3.47;3.10;;;;;;;;;;5056049;28;20531;-76
2023/08/05 12:27:33;;;;;;;4.80;3.15;;;;;;;;;;5058807;28;20460;-76
2023/08/05 12:29:59;;;;;;;4.68;3.65;;;;;;;;;;5074361;28;20041;-76
2023/08/05 12:32:26;;;;;;;8.75;3.70;;;;;;;;;;5075650;28;20093;-76
2023/08/05 12:34:52;;;;;;;4.75;3.70;;;;;;;;;;5069277;28;20056;-75
2023/08/05 12:37:18;;;;;;;4.40;3.97;;;;;;;;;;5075477;28;20399;-76
2023/08/05 12:39:44;;;;;;;6.07;4.22;;;;;;;;;;5075225;28;20059;-76
2023/08/05 12:42:10;;;;;;;5.95;3.80;;;;;;;;;;5070796;28;20128;-76
2023/08/05 12:44:36;;;;;;;5.55;4.10;;;;;;;;;;5055560;28;20045;-76
2023/08/05 12:47:02;;;;;;;5.05;4.05;;;;;;;;;;5068556;28;20048;-76
2023/08/05 12:49:28;;;;;;;5.93;4.18;;;;;;;;;;5073981;28;20052;-76
2023/08/05 12:51:55;;;;;;;6.70;4.15;;;;;;;;;;5075350;28;20041;-77
2023/08/05 12:54:21;;;;;;;5.38;4.10;;;;;;;;;;5078081;28;20041;-76
2023/08/05 12:56:47;;;;;;;6.15;4.43;;;;;;;;;;5075552;28;20040;-76
2023/08/05 12:59:13;;;;;;;8.38;4.78;;;;;;;;;;5075743;28;20076;-76
2023/08/05 13:01:39;;;;;;;6.18;4.45;;;;;;;;;;5065736;28;20087;-76
2023/08/05 13:04:05;;;;;;;6.60;4.32;;;;;;;;;;5059878;28;20053;-76
2023/08/05 13:06:31;;;;;;;7.22;5.32;;;;;;;;;;5072480;28;20048;-76
2023/08/05 13:08:57;;;;;;;5.65;4.82;;;;;;;;;;5078659;28;20037;-76
2023/08/05 13:11:23;;;;;;;6.25;5.05;;;;;;;;;;5075135;28;20041;-76
2023/08/05 13:13:49;;;;;;;5.30;4.80;;;;;;;;;;5063902;28;20040;-75
2023/08/05 13:16:16;;;;;;;6.88;5.57;;;;;;;;;;5067666;28;20105;-76
2023/08/05 13:18:43;;;;;;;6.43;5.80;;;;;;;;;;5060774;28;20076;-76
2023/08/05 13:21:09;;;;;;;7.28;5.50;;;;;;;;;;5055850;28;20049;-76
2023/08/05 13:23:36;;;;;;;6.47;5.47;;;;;;;;;;5075218;28;20039;-76
2023/08/05 13:26:02;;;;;;;6.68;5.95;;;;;;;;;;5070129;28;20468;-76
2023/08/05 13:28:28;;;;;;;7.50;6.25;;;;;;;;;;5064880;28;20040;-76
2023/08/05 13:31:04;;;;;;;8.80;6.68;;;;;;;;;;5064531;28;20108;-76
2023/08/05 13:33:30;;;;;;;8.52;6.13;;;;;;;;;;5068749;28;20051;-75
2023/08/05 13:35:56;;;;;;;7.95;6.20;;;;;;;;;;5070933;28;20059;-76
2023/08/05 13:38:22;;;;;;;8.13;6.28;;;;;;;;;;5073277;28;20135;-76
2023/08/05 13:40:51;;;;;;;8.50;6.50;;;;;;;;;;5074680;28;20148;-76
2023/08/05 13:43:17;;;;;;;9.35;6.38;;;;;;;;;;5074382;28;20127;-77
2023/08/05 13:45:50;;;;;;;8.13;6.70;;;;;;;;;;5068853;28;20098;-76
2023/08/05 13:48:16;;;;;;;7.80;6.25;;;;;;;;;;5060477;28;20041;-76
2023/08/05 13:50:42;;;;;;;9.00;7.13;;;;;;;;;;5068291;28;20041;-76
2023/08/05 13:53:08;;;;;;;7.80;6.43;;;;;;;;;;5056268;28;20040;-75
2023/08/05 13:55:34;;;;;;;7.75;6.85;;;;;;;;;;5062377;28;20476;-76
2023/08/05 13:58:00;;;;;;;4.70;3.75;;;;;;;;;;5054267;28;20055;-76
2023/08/05 14:00:26;;;;;;;3.58;2.25;;;;;;;;;;5054359;28;20033;-76
2023/08/05 14:02:53;;;;;;;3.80;2.17;;;;;;;;;;5054433;28;20037;-75
2023/08/05 14:05:19;;;;;;;3.53;2.33;;;;;;;;;;5057902;28;20040;-75
2023/08/05 14:07:45;;;;;;;5.45;2.30;;;;;;;;;;5055628;28;20154;-77
2023/08/05 14:10:11;;;;;;;6.70;2.97;;;;;;;;;;5073894;28;20076;-77
2023/08/05 14:12:38;;;;;;;5.57;2.88;;;;;;;;;;5074204;28;20045;-78
2023/08/05 14:15:04;;;;;;;4.80;2.72;;;;;;;;;;5074794;28;20083;-77
2023/08/05 14:17:30;;;;;;;4.13;2.50;;;;;;;;;;5074872;28;20486;-78
2023/08/05 14:19:56;;;;;;;4.43;2.88;;;;;;;;;;5073105;28;20094;-76
2023/08/05 14:22:22;;;;;;;3.72;3.05;;;;;;;;;;5072081;28;20045;-76
2023/08/05 14:24:48;;;;;;;5.70;2.90;;;;;;;;;;5068699;28;20108;-76
2023/08/05 14:27:14;;;;;;;4.38;3.20;;;;;;;;;;5059891;28;20037;-76
2023/08/05 14:29:40;;;;;;;4.03;2.80;;;;;;;;;;5052519;28;20045;-76
2023/08/05 14:32:07;;;;;;;3.60;3.03;;;;;;;;;;5052305;28;20049;-75
2023/08/05 14:34:33;;;;;;;5.10;3.22;;;;;;;;;;5055163;28;20336;-75
2023/08/05 14:36:59;;;;;;;4.82;3.13;;;;;;;;;;5035150;28;20122;-76
2023/08/05 14:39:25;;;;;;;4.22;2.97;;;;;;;;;;5059881;28;20045;-75
2023/08/05 14:41:51;;;;;;;4.70;3.35;;;;;;;;;;5058210;28;20114;-75